Archiv-/Tagesdaten

--Timestamp---	Temp	Chill	HIndex	Humid	Dewpt	 Wind 	HiWind	WindDir	Rain 	Barom	Solar	 ET  	 UV 
--------------	----	-----	------	-----	-----	------	------	-------	-----	-----	-----	-----	----
20260322 00:00	3.6	3.6	3.6	88	1.8	2	6	68	0.0	1012.7	0	0.000	0.0
20260322 00:05	3.6	3.6	3.6	88	1.8	3	8	68	0.0	1012.5	0	0.000	0.0
20260322 00:10	3.6	3.6	3.6	88	1.8	3	8	68	0.0	1012.5	0	0.000	0.0
20260322 00:15	3.6	3.6	3.6	88	1.8	3	8	68	0.0	1012.5	0	0.000	0.0
20260322 00:20	3.6	3.6	3.6	89	2.0	2	10	68	0.0	1012.5	0	0.000	0.0
20260322 00:25	3.6	3.6	3.6	89	1.9	2	5	68	0.0	1012.4	0	0.000	0.0
20260322 00:30	3.5	3.5	3.5	89	1.9	2	5	112	0.0	1012.6	0	0.000	0.0
20260322 00:35	3.4	3.4	3.4	88	1.6	2	5	90	0.0	1012.6	0	0.000	0.0
20260322 00:40	3.4	3.4	3.4	89	1.7	2	6	90	0.0	1012.5	0	0.000	0.0
20260322 00:45	3.3	3.3	3.3	89	1.7	3	6	68	0.0	1012.4	0	0.000	0.0
20260322 00:50	3.3	3.3	3.3	89	1.7	2	5	68	0.0	1012.4	0	0.000	0.0
20260322 00:55	3.3	3.3	3.3	89	1.6	2	5	90	0.0	1012.3	0	0.000	0.0
20260322 01:00	3.2	3.2	3.2	89	1.5	2	5	68	0.0	1012.3	0	0.000	0.0
20260322 01:05	3.1	3.1	3.1	89	1.5	2	5	68	0.0	1012.2	0	0.000	0.0
20260322 01:10	3.1	3.1	3.1	89	1.4	2	6	90	0.0	1012.2	0	0.000	0.0
20260322 01:15	3.1	3.1	3.1	89	1.4	2	8	112	0.0	1012.3	0	0.000	0.0
20260322 01:20	3.1	3.1	3.1	89	1.4	2	5	90	0.0	1012.3	0	0.000	0.0
20260322 01:25	3.1	3.1	3.1	90	1.6	2	5	112	0.0	1012.2	0	0.000	0.0
20260322 01:30	3.1	3.1	3.1	89	1.4	2	6	90	0.0	1012.2	0	0.000	0.0
20260322 01:35	3.0	3.0	3.0	90	1.5	2	6	90	0.0	1012.2	0	0.000	0.0
20260322 01:40	2.9	2.9	2.9	90	1.5	2	8	90	0.0	1012.2	0	0.000	0.0
20260322 01:45	2.9	2.9	2.9	90	1.5	2	8	90	0.0	1012.1	0	0.000	0.0
20260322 01:50	2.9	2.9	2.9	90	1.4	2	6	90	0.0	1012.1	0	0.000	0.0
20260322 01:55	2.8	2.8	2.8	90	1.4	2	11	90	0.0	1012.1	0	0.000	0.0
20260322 02:00	2.8	2.8	2.8	90	1.4	2	5	112	0.0	1012.0	0	0.000	0.0
20260322 02:05	2.8	2.8	2.8	90	1.3	3	10	112	0.0	1011.9	0	0.000	0.0
20260322 02:10	2.8	2.8	2.8	90	1.3	2	5	112	0.0	1011.8	0	0.000	0.0
20260322 02:15	2.7	2.7	2.7	90	1.2	2	5	90	0.0	1011.8	0	0.000	0.0
20260322 02:20	2.7	2.7	2.7	90	1.2	2	5	112	0.0	1011.8	0	0.000	0.0
20260322 02:25	2.6	2.6	2.6	90	1.1	0	2	112	0.0	1011.7	0	0.000	0.0
20260322 02:30	2.5	2.5	2.5	90	1.0	0	2	112	0.0	1011.7	0	0.000	0.0
20260322 02:35	2.3	2.3	2.3	90	0.9	0	3	112	0.0	1011.7	0	0.000	0.0
20260322 02:40	2.2	2.2	2.2	90	0.8	0	2	112	0.0	1011.7	0	0.000	0.0
20260322 02:45	2.1	2.1	2.1	90	0.6	0	2	112	0.0	1011.7	0	0.000	0.0
20260322 02:50	2.1	2.1	2.1	90	0.6	0	3	112	0.0	1011.7	0	0.000	0.0
20260322 02:55	1.9	1.9	1.9	90	0.5	0	3	112	0.0	1011.7	0	0.000	0.0
20260322 03:00	1.8	1.8	1.8	90	0.3	0	3	90	0.0	1011.7	0	0.000	0.0
20260322 03:05	1.7	1.7	1.7	90	0.2	0	3	90	0.0	1011.7	0	0.000	0.0
20260322 03:10	1.6	1.6	1.6	90	0.2	0	3	90	0.0	1011.7	0	0.000	0.0
20260322 03:15	1.6	1.6	1.6	90	0.1	0	3	90	0.0	1011.8	0	0.000	0.0
20260322 03:20	1.4	1.4	1.4	90	-0.0	0	3	90	0.0	1011.7	0	0.000	0.0
20260322 03:25	1.4	1.4	1.4	91	0.1	0	3	90	0.0	1011.7	0	0.000	0.0
20260322 03:30	1.3	1.3	1.3	91	0.0	0	3	68	0.0	1011.9	0	0.000	0.0
20260322 03:35	1.3	1.3	1.3	91	0.0	0	3	68	0.0	1011.9	0	0.000	0.0
20260322 03:40	1.4	1.4	1.4	91	0.1	0	3	68	0.0	1011.8	0	0.000	0.0
20260322 03:45	1.4	1.4	1.4	91	0.1	0	0	-100000	0.0	1011.9	0	0.000	0.0
20260322 03:50	1.4	1.4	1.4	91	0.1	0	0	-100000	0.0	1011.8	0	0.000	0.0
20260322 03:55	1.2	1.2	1.2	91	-0.1	0	0	-100000	0.0	1012.0	0	0.000	0.0
20260322 04:00	1.1	1.1	1.1	91	-0.2	0	3	68	0.0	1012.0	0	0.000	0.0
20260322 04:05	0.9	0.9	0.9	91	-0.4	0	0	-100000	0.0	1012.2	0	0.000	0.0
20260322 04:10	0.8	0.8	0.8	91	-0.5	0	0	-100000	0.0	1012.3	0	0.000	0.0
20260322 04:15	0.7	0.7	0.7	91	-0.6	0	0	-100000	0.0	1012.3	0	0.000	0.0
20260322 04:20	0.7	0.7	0.7	91	-0.6	0	0	-100000	0.0	1012.2	0	0.000	0.0
20260322 04:25	0.6	0.6	0.6	91	-0.7	0	0	-100000	0.0	1012.3	0	0.000	0.0
20260322 04:30	0.6	0.6	0.6	91	-0.7	0	0	-100000	0.0	1012.3	0	0.000	0.0
20260322 04:35	0.5	0.5	0.5	91	-0.8	0	0	-100000	0.0	1012.4	0	0.000	0.0
20260322 04:40	0.4	0.4	0.4	91	-0.9	0	0	-100000	0.0	1012.4	0	0.000	0.0
20260322 04:45	0.4	0.4	0.4	91	-0.9	0	0	-100000	0.0	1012.4	0	0.000	0.0
20260322 04:50	0.4	0.4	0.4	91	-0.9	0	0	-100000	0.0	1012.5	0	0.000	0.0
20260322 04:55	0.4	0.4	0.4	91	-0.9	0	0	-100000	0.0	1012.4	0	0.000	0.0
20260322 05:00	0.3	0.3	0.3	91	-1.0	0	0	-100000	0.0	1012.4	0	0.000	0.0
20260322 05:05	0.3	0.3	0.3	91	-1.0	0	0	-100000	0.0	1012.5	0	0.000	0.0
20260322 05:10	0.2	0.2	0.2	91	-1.1	0	0	-100000	0.0	1012.7	0	0.000	0.0
20260322 05:15	0.2	0.2	0.2	91	-1.1	0	0	-100000	0.0	1012.6	0	0.000	0.0
20260322 05:20	0.2	0.2	0.2	91	-1.1	0	0	-100000	0.0	1012.6	0	0.000	0.0
20260322 05:25	0.1	0.1	0.1	91	-1.2	0	0	-100000	0.0	1012.6	0	0.000	0.0
20260322 05:30	0.1	0.1	0.1	91	-1.2	0	0	-100000	0.0	1012.7	0	0.000	0.0
20260322 05:35	0.1	0.1	0.1	91	-1.2	0	0	-100000	0.0	1012.7	0	0.000	0.0
20260322 05:40	0.1	0.1	0.1	91	-1.2	0	0	-100000	0.0	1012.7	0	0.000	0.0
20260322 05:45	0.1	0.1	0.1	91	-1.2	0	0	-100000	0.0	1012.7	0	0.000	0.0
20260322 05:50	0.0	0.0	0.0	92	-1.1	0	0	-100000	0.0	1012.7	0	0.000	0.0
20260322 05:55	-0.1	-0.1	-0.1	92	-1.3	0	0	-100000	0.0	1012.7	0	0.000	0.0
20260322 06:00	-0.2	-0.2	-0.2	91	-1.5	0	0	-100000	0.0	1012.7	0	0.000	0.0
20260322 06:05	-0.3	-0.3	-0.3	91	-1.6	0	0	-100000	0.0	1012.8	0	0.000	0.0
20260322 06:10	-0.3	-0.3	-0.3	92	-1.5	0	0	-100000	0.0	1012.8	0	0.000	0.0
20260322 06:15	-0.4	-0.4	-0.4	92	-1.5	0	0	-100000	0.0	1012.9	0	0.000	0.0
20260322 06:20	-0.4	-0.4	-0.4	92	-1.6	0	0	-100000	0.0	1012.9	2	0.000	0.0
20260322 06:25	-0.4	-0.4	-0.4	92	-1.6	0	0	-100000	0.0	1012.9	6	0.000	0.0
20260322 06:30	-0.4	-0.4	-0.4	91	-1.7	0	0	-100000	0.0	1012.9	8	0.000	0.0
20260322 06:35	-0.4	-0.4	-0.4	92	-1.6	0	0	-100000	0.0	1013.0	11	0.000	0.0
20260322 06:40	-0.4	-0.4	-0.4	92	-1.6	0	0	-100000	0.0	1013.0	12	0.000	0.0
20260322 06:45	-0.4	-0.4	-0.4	92	-1.6	0	0	-100000	0.0	1013.1	14	0.000	0.0
20260322 06:50	-0.4	-0.4	-0.4	92	-1.5	0	0	-100000	0.0	1013.0	16	0.000	0.0
20260322 06:55	-0.3	-0.3	-0.3	92	-1.5	0	0	-100000	0.0	1013.0	18	0.000	0.0
20260322 07:00	-0.3	-0.3	-0.3	92	-1.4	0	0	-100000	0.0	1013.0	19	0.000	0.0
20260322 07:05	-0.2	-0.2	-0.2	92	-1.4	0	0	-100000	0.0	1013.2	21	0.000	0.0
20260322 07:10	-0.2	-0.2	-0.2	92	-1.4	0	0	-100000	0.0	1013.2	23	0.000	0.0
20260322 07:15	-0.1	-0.1	-0.1	92	-1.3	0	0	-100000	0.0	1013.2	24	0.000	0.0
20260322 07:20	-0.1	-0.1	-0.1	92	-1.2	0	0	-100000	0.0	1013.3	26	0.000	0.0
20260322 07:25	0.1	0.1	0.1	92	-1.0	0	2	248	0.0	1013.3	27	0.000	0.0
20260322 07:30	0.4	0.4	0.4	92	-0.7	0	0	-100000	0.0	1013.2	28	0.000	0.0
20260322 07:35	0.8	0.8	0.8	93	-0.2	0	0	-100000	0.0	1013.2	42	0.000	0.0
20260322 07:40	0.9	0.9	0.9	93	-0.1	0	0	-100000	0.0	1013.2	128	0.000	0.0
20260322 07:45	1.6	1.6	1.6	93	0.5	0	0	-100000	0.0	1013.1	108	0.000	0.0
20260322 07:50	2.1	2.1	2.1	93	1.0	0	0	-100000	0.0	1013.1	43	0.000	0.0
20260322 07:55	2.2	2.2	2.2	93	1.2	0	0	-100000	0.0	1013.1	33	0.000	0.0
20260322 08:00	2.3	2.3	2.3	93	1.3	0	2	248	0.0	1013.1	33	0.025	0.0
20260322 08:05	2.4	2.4	2.4	93	1.4	0	3	248	0.0	1013.1	33	0.000	0.0
20260322 08:10	2.6	2.6	2.6	92	1.4	2	3	248	0.0	1013.2	35	0.000	0.0
20260322 08:15	2.8	2.8	2.8	92	1.7	2	5	112	0.0	1013.0	35	0.000	0.0
20260322 08:20	3.1	3.1	3.1	92	1.9	2	5	112	0.0	1012.9	35	0.000	0.0
20260322 08:25	3.4	3.4	3.4	91	2.1	3	8	112	0.0	1012.9	35	0.000	0.0
20260322 08:30	3.7	3.7	3.7	90	2.2	3	6	90	0.0	1012.9	35	0.000	0.0
20260322 08:35	4.1	4.1	4.1	88	2.2	3	8	112	0.0	1012.8	37	0.000	0.0
20260322 08:40	4.3	4.3	4.3	86	2.2	5	10	112	0.0	1012.6	37	0.000	0.0
20260322 08:45	4.7	4.7	4.7	84	2.3	5	11	90	0.0	1012.6	37	0.000	0.0
20260322 08:50	5.1	5.1	5.1	82	2.2	5	10	112	0.0	1012.7	37	0.000	0.0
20260322 08:55	5.3	5.3	5.3	81	2.3	5	10	90	0.0	1012.5	37	0.000	0.0
20260322 09:00	5.6	4.3	5.6	79	2.3	6	14	112	0.0	1012.5	38	0.025	0.0
20260322 09:05	5.8	4.1	5.8	77	2.1	8	19	90	0.0	1012.6	39	0.000	0.0
20260322 09:10	6.1	4.8	6.1	77	2.3	6	14	90	0.0	1012.4	39	0.000	0.0
20260322 09:15	6.2	5.0	6.2	75	2.1	6	11	90	0.0	1012.3	39	0.000	0.0
20260322 09:20	6.4	5.3	6.4	74	2.1	6	11	90	0.0	1012.3	39	0.000	0.0
20260322 09:25	6.7	4.7	6.7	72	2.0	10	18	90	0.0	1012.4	39	0.000	0.0
20260322 09:30	6.8	5.7	6.8	72	2.1	6	11	112	0.0	1012.3	40	0.000	0.0
20260322 09:35	7.0	5.9	7.0	70	1.9	6	11	112	0.0	1012.3	40	0.000	0.0
20260322 09:40	7.2	5.7	7.2	69	1.9	8	16	90	0.0	1012.3	40	0.000	0.0
20260322 09:45	7.4	5.9	7.4	69	2.1	8	18	90	0.0	1012.2	40	0.000	0.0
20260322 09:50	7.6	6.5	7.6	67	1.8	6	16	90	0.0	1012.3	42	0.000	0.0
20260322 09:55	7.7	6.7	7.7	67	1.9	6	14	68	0.0	1012.2	42	0.000	0.0
20260322 10:00	7.8	7.8	7.8	68	2.3	5	11	90	0.0	1012.1	44	0.025	0.0
20260322 10:05	8.1	8.1	8.1	67	2.3	5	11	90	0.0	1012.2	44	0.000	0.0
20260322 10:10	8.1	7.2	8.1	67	2.4	6	14	68	0.0	1012.2	44	0.000	0.0
20260322 10:15	8.3	7.4	8.3	67	2.6	6	16	68	0.0	1012.1	45	0.000	0.0
20260322 10:20	8.4	7.5	8.4	66	2.4	6	18	112	0.0	1012.1	45	0.000	0.0
20260322 10:25	8.5	7.6	8.5	65	2.3	6	13	68	0.0	1012.1	46	0.000	0.0
20260322 10:30	8.8	8.0	8.8	64	2.3	6	11	90	0.0	1012.0	46	0.000	0.0
20260322 10:35	9.0	7.8	9.0	62	2.1	8	19	90	0.0	1012.0	46	0.000	0.0
20260322 10:40	9.2	8.1	9.2	63	2.5	8	18	90	0.0	1011.9	46	0.000	0.0
20260322 10:45	9.4	8.4	9.4	61	2.3	8	18	112	0.0	1011.9	46	0.000	0.0
20260322 10:50	9.6	8.9	9.6	61	2.5	6	11	90	0.0	1011.9	46	0.000	0.0
20260322 10:55	9.7	8.7	9.7	60	2.3	8	19	68	0.0	1011.8	47	0.000	0.0
20260322 11:00	9.8	8.8	9.8	59	2.2	8	21	68	0.0	1011.8	47	0.051	0.0
20260322 11:05	9.9	8.9	9.9	60	2.5	8	18	68	0.0	1011.8	47	0.000	0.0
20260322 11:10	10.2	10.2	10.2	58	2.3	10	21	68	0.0	1011.8	49	0.000	0.0
20260322 11:15	10.3	10.3	10.3	58	2.4	8	16	68	0.0	1011.7	49	0.000	0.0
20260322 11:20	10.3	10.3	10.3	55	1.7	8	16	68	0.0	1011.7	49	0.000	0.0
20260322 11:25	10.5	10.5	10.5	56	2.1	6	18	68	0.0	1011.6	49	0.000	0.0
20260322 11:30	10.8	10.8	10.8	56	2.4	8	23	90	0.0	1011.6	49	0.000	0.0
20260322 11:35	11.1	11.1	11.1	53	1.8	10	18	90	0.0	1011.5	51	0.000	0.0
20260322 11:40	11.1	11.1	11.1	51	1.4	11	23	90	0.0	1011.4	51	0.000	0.0
20260322 11:45	11.2	11.2	11.2	51	1.4	8	18	90	0.0	1011.5	51	0.000	0.0
20260322 11:50	11.4	11.4	11.4	51	1.6	10	19	68	0.0	1011.3	52	0.000	0.0
20260322 11:55	11.6	11.6	11.6	51	1.8	10	18	90	0.0	1011.2	53	0.000	0.0
20260322 12:00	11.8	11.8	11.8	50	1.7	10	21	90	0.0	1011.2	53	0.076	0.0
20260322 12:05	11.9	11.9	11.9	47	1.0	10	21	90	0.0	1011.2	53	0.000	0.0
20260322 12:10	12.0	12.0	12.0	47	1.0	11	19	90	0.0	1011.2	54	0.000	0.0
20260322 12:15	12.2	12.2	12.2	47	1.2	11	19	90	0.0	1011.2	54	0.000	0.0
20260322 12:20	12.1	12.1	12.1	48	1.4	8	19	90	0.0	1011.2	56	0.000	0.9
20260322 12:25	12.3	12.3	12.3	46	1.0	11	23	90	0.0	1011.2	56	0.000	1.0
20260322 12:30	12.4	12.4	12.4	45	0.8	11	19	90	0.0	1011.1	56	0.000	1.0
20260322 12:35	12.5	12.5	12.5	45	0.9	13	23	90	0.0	1011.1	58	0.000	1.0
20260322 12:40	12.7	12.7	12.7	44	0.8	8	18	90	0.0	1011.1	420	0.000	1.0
20260322 12:45	12.8	12.8	12.8	46	1.4	10	21	68	0.0	1011.0	584	0.000	1.1
20260322 12:50	12.8	12.8	12.8	46	1.5	10	19	68	0.0	1011.0	585	0.000	1.8
20260322 12:55	12.8	12.8	12.8	45	1.1	13	24	68	0.0	1011.0	584	0.000	1.7
20260322 13:00	12.9	12.9	12.9	43	0.6	11	23	68	0.0	1011.0	581	0.203	1.7
20260322 13:05	13.1	13.1	13.1	43	0.8	8	16	68	0.0	1011.0	578	0.000	1.7
20260322 13:10	13.1	13.1	13.1	45	1.4	8	19	68	0.0	1011.1	575	0.000	1.7
20260322 13:15	13.2	13.2	13.2	43	0.9	11	26	68	0.0	1011.0	574	0.000	1.7
20260322 13:20	13.3	13.3	13.3	42	0.6	13	26	90	0.0	1011.0	569	0.000	1.7
20260322 13:25	13.2	13.2	13.2	42	0.6	11	24	45	0.0	1010.9	564	0.000	1.6
20260322 13:30	13.3	13.3	13.3	41	0.4	13	24	90	0.0	1011.0	545	0.000	1.6
20260322 13:35	13.4	13.4	13.4	43	1.1	11	21	90	0.0	1010.9	558	0.000	1.6
20260322 13:40	13.6	13.6	13.6	42	0.9	11	27	68	0.0	1010.7	553	0.000	1.5
20260322 13:45	13.6	13.6	13.6	42	0.9	13	23	68	0.0	1010.6	549	0.000	1.5
20260322 13:50	13.6	13.6	13.6	43	1.2	11	19	68	0.0	1010.7	541	0.000	1.5
20260322 13:55	13.9	13.9	13.9	42	1.2	13	23	90	0.0	1010.6	535	0.000	1.5
20260322 14:00	13.8	13.8	13.8	41	0.8	11	26	68	0.0	1010.6	533	0.356	1.4
20260322 14:05	13.8	13.8	13.8	41	0.8	11	23	90	0.0	1010.7	526	0.000	1.4
20260322 14:10	13.9	13.9	13.9	42	1.2	10	21	68	0.0	1010.6	522	0.000	1.4
20260322 14:15	13.9	13.9	13.9	41	0.9	14	27	68	0.0	1010.6	514	0.000	1.3
20260322 14:20	14.2	14.2	14.2	42	1.4	10	23	90	0.0	1010.6	507	0.000	1.3
20260322 14:25	14.3	14.3	14.3	40	0.9	8	23	68	0.0	1010.6	496	0.000	1.3
20260322 14:30	14.2	14.2	14.2	39	0.4	10	19	68	0.0	1010.5	487	0.000	1.2
20260322 14:35	14.0	14.0	14.0	40	0.6	11	24	68	0.0	1010.5	479	0.000	1.2
20260322 14:40	14.0	14.0	14.0	40	0.6	10	19	68	0.0	1010.5	471	0.000	1.1
20260322 14:45	14.2	14.2	14.2	40	0.8	11	21	90	0.0	1010.5	465	0.000	1.1
20260322 14:50	14.4	14.4	14.4	38	0.2	11	23	68	0.0	1010.4	456	0.000	1.1
20260322 14:55	14.4	14.4	14.4	39	0.7	10	21	90	0.0	1010.4	450	0.000	1.0
20260322 15:00	14.2	14.2	14.2	38	0.1	14	26	68	0.0	1010.4	441	0.330	1.0
20260322 15:05	14.3	14.3	14.3	40	0.9	8	19	68	0.0	1010.4	432	0.000	0.9
20260322 15:10	14.5	14.5	14.5	38	0.3	8	16	68	0.0	1010.4	426	0.000	0.9
20260322 15:15	14.2	14.2	14.2	39	0.5	13	24	68	0.0	1010.5	406	0.000	0.9
20260322 15:20	14.1	14.1	14.1	37	-0.4	14	23	45	0.0	1010.5	408	0.000	0.8
20260322 15:25	13.9	13.9	13.9	38	-0.2	13	21	45	0.0	1010.5	397	0.000	0.8
20260322 15:30	14.1	14.1	14.1	38	0.0	11	19	68	0.0	1010.5	389	0.000	0.8
20260322 15:35	14.3	14.3	14.3	38	0.2	11	21	68	0.0	1010.4	383	0.000	0.7
20260322 15:40	14.2	14.2	14.2	38	0.1	10	21	68	0.0	1010.4	377	0.000	0.7
20260322 15:45	14.2	14.2	14.2	38	0.1	10	26	68	0.0	1010.4	271	0.000	0.6
20260322 15:50	14.3	14.3	14.3	38	0.2	10	19	45	0.0	1010.3	356	0.000	0.6
20260322 15:55	13.9	13.9	13.9	38	-0.1	11	21	68	0.0	1010.4	220	0.000	0.5
20260322 16:00	13.9	13.9	13.9	39	0.2	8	19	68	0.0	1010.4	284	0.279	0.5
20260322 16:05	13.9	13.9	13.9	38	-0.1	8	18	68	0.0	1010.4	263	0.000	0.3
20260322 16:10	14.1	14.1	14.1	37	-0.4	11	23	90	0.0	1010.4	300	0.000	0.5
20260322 16:15	13.9	13.9	13.9	38	-0.2	8	23	68	0.0	1010.4	208	0.000	0.1
20260322 16:20	13.8	13.8	13.8	39	0.1	10	23	68	0.0	1010.4	232	0.000	0.0
20260322 16:25	13.6	13.6	13.6	42	0.9	13	26	68	0.0	1010.4	241	0.000	0.0
20260322 16:30	13.2	13.2	13.2	43	0.9	19	29	45	0.0	1010.4	246	0.000	0.0
20260322 16:35	13.1	13.1	13.1	43	0.8	16	31	68	0.0	1010.5	229	0.000	0.0
20260322 16:40	13.1	13.1	13.1	44	1.1	14	26	68	0.0	1010.5	211	0.000	0.0
20260322 16:45	13.2	13.2	13.2	43	0.9	13	26	45	0.0	1010.6	191	0.000	0.0
20260322 16:50	13.2	13.2	13.2	44	1.2	11	23	68	0.0	1010.6	183	0.000	0.0
20260322 16:55	13.0	13.0	13.0	43	0.7	16	27	68	0.0	1010.6	155	0.000	0.0
20260322 17:00	13.0	13.0	13.0	44	1.0	11	23	68	0.0	1010.6	149	0.203	0.0
20260322 17:05	12.9	12.9	12.9	44	0.9	13	26	68	0.0	1010.7	136	0.000	0.0
20260322 17:10	12.8	12.8	12.8	44	0.9	13	21	68	0.0	1010.8	123	0.000	0.0
20260322 17:15	12.8	12.8	12.8	44	0.8	11	19	68	0.0	1010.8	109	0.000	0.0
20260322 17:20	12.6	12.6	12.6	45	1.0	10	21	68	0.0	1010.7	95	0.000	0.0
20260322 17:25	12.5	12.5	12.5	45	0.9	11	19	68	0.0	1010.8	84	0.000	0.0
20260322 17:30	12.4	12.4	12.4	45	0.8	6	14	68	0.0	1010.8	73	0.000	0.0
20260322 17:35	12.3	12.3	12.3	45	0.7	10	19	68	0.0	1010.9	62	0.000	0.0
20260322 17:40	12.2	12.2	12.2	45	0.6	6	21	68	0.0	1010.8	52	0.000	0.0
20260322 17:45	12.1	12.1	12.1	46	0.8	8	16	68	0.0	1010.8	41	0.000	0.0
20260322 17:50	11.8	11.8	11.8	46	0.6	8	16	45	0.0	1011.0	33	0.000	0.0
20260322 17:55	11.6	11.6	11.6	47	0.7	8	18	68	0.0	1010.9	26	0.000	0.0
20260322 18:00	11.4	11.4	11.4	47	0.5	8	16	68	0.0	1010.9	20	0.102	0.0
20260322 18:05	11.2	11.2	11.2	48	0.6	10	19	68	0.0	1010.9	16	0.000	0.0
20260322 18:10	11.1	11.1	11.1	49	0.7	8	18	68	0.0	1010.9	13	0.000	0.0
20260322 18:15	10.9	10.9	10.9	50	0.9	8	19	68	0.0	1010.9	11	0.000	0.0
20260322 18:20	10.7	10.7	10.7	50	0.7	10	18	68	0.0	1011.1	8	0.000	0.0
20260322 18:25	10.6	10.6	10.6	51	0.8	10	18	68	0.0	1011.1	5	0.000	0.0
20260322 18:30	10.4	10.4	10.4	52	1.0	8	19	68	0.0	1011.2	0	0.000	0.0
20260322 18:35	10.2	10.2	10.2	52	0.8	8	14	68	0.0	1011.1	0	0.000	0.0
20260322 18:40	10.0	10.0	10.0	53	0.9	8	14	68	0.0	1011.1	0	0.000	0.0
20260322 18:45	9.8	9.2	9.8	54	1.0	6	18	68	0.0	1011.1	0	0.000	0.0
20260322 18:50	9.7	8.7	9.7	54	0.9	8	18	68	0.0	1011.2	0	0.000	0.0
20260322 18:55	9.6	8.9	9.6	55	1.0	6	11	68	0.0	1011.4	0	0.000	0.0
20260322 19:00	9.4	8.4	9.4	56	1.1	8	19	68	0.0	1011.4	0	0.051	0.0
20260322 19:05	9.3	8.5	9.3	57	1.2	6	14	68	0.0	1011.1	0	0.000	0.0
20260322 19:10	9.2	8.0	9.2	57	1.1	8	14	68	0.0	1011.2	0	0.000	0.0
20260322 19:15	9.0	9.0	9.0	58	1.2	5	10	68	0.0	1011.2	0	0.000	0.0
20260322 19:20	8.8	8.8	8.8	59	1.2	5	11	68	0.0	1011.1	0	0.000	0.0
20260322 19:25	8.8	7.6	8.8	59	1.2	8	16	68	0.0	1011.1	0	0.000	0.0
20260322 19:30	8.8	7.6	8.8	59	1.2	8	18	68	0.0	1011.1	0	0.000	0.0
20260322 19:35	8.7	7.1	8.7	60	1.3	10	16	68	0.0	1011.1	0	0.000	0.0
20260322 19:40	8.6	7.7	8.6	60	1.2	6	11	68	0.0	1011.1	0	0.000	0.0
20260322 19:45	8.4	8.4	8.4	61	1.3	5	10	68	0.0	1011.3	0	0.000	0.0
20260322 19:50	8.2	8.2	8.2	62	1.3	5	10	68	0.0	1011.3	0	0.000	0.0
20260322 19:55	8.1	7.1	8.1	62	1.2	6	16	68	0.0	1011.3	0	0.000	0.0
20260322 20:00	8.0	7.1	8.0	62	1.2	6	14	68	0.0	1011.3	0	0.051	0.0
20260322 20:05	8.0	7.1	8.0	62	1.2	6	14	68	0.0	1011.0	0	0.000	0.0
20260322 20:10	7.9	7.0	7.9	62	1.1	6	16	68	0.0	1011.0	0	0.000	0.0
20260322 20:15	7.9	7.0	7.9	63	1.3	6	16	68	0.0	1011.0	0	0.000	0.0
20260322 20:20	7.8	7.8	7.8	63	1.2	5	10	68	0.0	1011.0	0	0.000	0.0
20260322 20:25	7.6	7.6	7.6	64	1.2	5	11	68	0.0	1011.1	0	0.000	0.0
20260322 20:30	7.6	6.5	7.6	64	1.2	6	10	68	0.0	1011.1	0	0.000	0.0
20260322 20:35	7.4	6.4	7.4	64	1.1	6	11	68	0.0	1011.2	0	0.000	0.0
20260322 20:40	7.4	7.4	7.4	65	1.2	5	14	68	0.0	1011.2	0	0.000	0.0
20260322 20:45	7.3	7.3	7.3	65	1.1	5	11	90	0.0	1011.1	0	0.000	0.0
20260322 20:50	7.3	7.3	7.3	65	1.1	3	8	68	0.0	1011.1	0	0.000	0.0
20260322 20:55	7.2	7.2	7.2	65	1.0	5	8	68	0.0	1011.2	0	0.000	0.0
20260322 21:00	7.1	7.1	7.1	65	0.9	5	10	68	0.0	1011.2	0	0.025	0.0
20260322 21:05	6.9	6.9	6.9	66	1.0	3	6	68	0.0	1010.9	0	0.000	0.0
20260322 21:10	6.8	6.8	6.8	66	0.9	3	10	90	0.0	1011.0	0	0.000	0.0
20260322 21:15	6.8	6.8	6.8	66	0.9	3	6	68	0.0	1011.0	0	0.000	0.0
20260322 21:20	6.7	6.7	6.7	66	0.8	3	10	45	0.0	1011.1	0	0.000	0.0
20260322 21:25	6.3	6.3	6.3	68	0.9	0	5	45	0.0	1011.1	0	0.000	0.0
20260322 21:30	5.8	5.8	5.8	69	0.6	0	3	45	0.0	1011.2	0	0.000	0.0
20260322 21:35	5.5	5.5	5.5	71	0.7	0	3	45	0.0	1011.4	0	0.000	0.0
20260322 21:40	5.2	5.2	5.2	71	0.4	2	5	45	0.0	1011.4	0	0.000	0.0
20260322 21:45	5.1	5.1	5.1	72	0.4	2	5	22	0.0	1011.5	0	0.000	0.0
20260322 21:50	4.8	4.8	4.8	72	0.2	2	5	22	0.0	1011.5	0	0.000	0.0
20260322 21:55	4.8	4.8	4.8	73	0.4	3	5	22	0.0	1011.5	0	0.000	0.0
20260322 22:00	4.8	4.8	4.8	73	0.4	0	5	22	0.0	1011.6	0	0.025	0.0
20260322 22:05	5.2	5.2	5.2	72	0.5	5	6	22	0.0	1011.3	0	0.000	0.0
20260322 22:10	5.3	5.3	5.3	72	0.7	2	6	45	0.0	1011.1	0	0.000	0.0
20260322 22:15	5.2	5.2	5.2	72	0.6	0	0	-100000	0.0	1011.3	0	0.000	0.0
20260322 22:20	5.1	5.1	5.1	72	0.4	0	0	-100000	0.0	1011.2	0	0.000	0.0
20260322 22:25	4.9	4.9	4.9	72	0.3	0	0	-100000	0.0	1011.2	0	0.000	0.0
20260322 22:30	4.7	4.7	4.7	73	0.2	0	0	-100000	0.0	1011.3	0	0.000	0.0
20260322 22:35	4.4	4.4	4.4	74	0.2	0	0	-100000	0.0	1011.3	0	0.000	0.0
20260322 22:40	4.3	4.3	4.3	74	0.1	0	0	-100000	0.0	1011.3	0	0.000	0.0
20260322 22:45	4.2	4.2	4.2	75	0.1	0	0	-100000	0.0	1011.4	0	0.000	0.0
20260322 22:50	4.0	4.0	4.0	75	-0.0	0	0	-100000	0.0	1011.6	0	0.000	0.0
20260322 22:55	3.9	3.9	3.9	75	-0.1	0	0	-100000	0.0	1011.6	0	0.000	0.0
20260322 23:00	3.7	3.7	3.7	76	-0.1	0	0	-100000	0.0	1011.6	0	0.025	0.0
20260322 23:05	3.7	3.7	3.7	77	0.0	0	0	-100000	0.0	1011.4	0	0.000	0.0
20260322 23:10	3.6	3.6	3.6	77	-0.1	0	0	-100000	0.0	1011.6	0	0.000	0.0
20260322 23:15	3.4	3.4	3.4	77	-0.2	0	0	-100000	0.0	1011.6	0	0.000	0.0
20260322 23:20	3.6	3.6	3.6	78	0.1	0	0	-100000	0.0	1011.6	0	0.000	0.0
20260322 23:25	3.6	3.6	3.6	78	0.1	0	0	-100000	0.0	1011.6	0	0.000	0.0
20260322 23:30	3.5	3.5	3.5	78	0.0	0	0	-100000	0.0	1011.6	0	0.000	0.0
20260322 23:35	3.4	3.4	3.4	78	-0.1	0	0	-100000	0.0	1011.7	0	0.000	0.0
20260322 23:40	3.3	3.3	3.3	78	-0.1	0	0	-100000	0.0	1011.7	0	0.000	0.0
20260322 23:45	3.3	3.3	3.3	78	-0.2	0	0	-100000	0.0	1011.7	0	0.000	0.0
20260322 23:50	3.2	3.2	3.2	78	-0.3	0	0	-100000	0.0	1011.7	0	0.000	0.0
20260322 23:55	3.0	3.0	3.0	78	-0.5	0	0	-100000	0.0	1011.7	0	0.000	0.0



Please note the license to use and transfer of this data:
https://creativecommons.org/licenses/by-nc-sa/3.0/deed.en

Bitte beachten sie die Lizenz zur Verwertung und Weitergabe der Daten:
https://creativecommons.org/licenses/by-nc-sa/3.0/deed.de

zurück zur Übersicht der Archivdaten (Monats und Tagesdaten)